Alturas, Florida
Current Conditions -  °F | °C
As of 2:50 PM on Friday 31 Oct 2014 (Local Time) from KBOW Reporting Station
Clear Clear  
Wind Chill: 75°   Ceiling: Unl
Heat Index: 75°   Visibility: 10mi
Dew Point: 46°   Wind: 17mph
Humidity: 36%   Direction: 310°NW
Pressure: 29.82"   Gusts: 23mph
Location:  27.87°N, 81.71°W
Report Text: KBOW 311850Z 31015G20KT 10SM SKC 24/08 A2982
Loading
Personal Weather Stations






























Interactive Weather Map
Tropical Storm Tracking
New forecast layout! Learn more

10-Day Weather Forecast

Advertisements
Track Severe Weather on mobile